createdAt,value
2019-01-09T00:00:47.100Z,103365.78
2019-01-09T00:03:16.481Z,103365.78
2019-01-09T00:05:45.811Z,103368.34
2019-01-09T00:08:15.149Z,103368.34
2019-01-09T00:10:44.603Z,103367.89
2019-01-09T00:13:13.953Z,103364.88
2019-01-09T00:15:43.299Z,103359.69
2019-01-09T00:18:12.638Z,103365.71
2019-01-09T00:20:42.010Z,103367.43
2019-01-09T00:23:11.349Z,103355.77
2019-01-09T00:25:40.715Z,103362.67
2019-01-09T00:28:10.057Z,103369.14
2019-01-09T00:30:39.425Z,103368.72
2019-01-09T00:33:08.898Z,103372.61
2019-01-09T00:35:38.244Z,103367.89
2019-01-09T00:38:07.590Z,103364.45
2019-01-09T00:40:36.957Z,103370.96
2019-01-09T00:43:06.333Z,103369.28
2019-01-09T00:45:35.671Z,103373.62
2019-01-09T00:48:05.148Z,103371.94
2019-01-09T00:50:34.505Z,103365.94
2019-01-09T00:53:03.844Z,103370.28
2019-01-09T00:55:33.238Z,103375.95
2019-01-09T00:58:02.817Z,103372.09
2019-01-09T01:00:32.189Z,103376.45
2019-01-09T01:03:18.494Z,103369.58
2019-01-09T01:06:34.467Z,103369.19
2019-01-09T01:09:53.830Z,103376.58
2019-01-09T01:12:50.507Z,103376.56
2019-01-09T01:16:12.272Z,103369.70
2019-01-09T01:19:25.307Z,103375.33
2019-01-09T01:22:00.296Z,103367.58
2019-01-09T01:25:02.912Z,103359.80
2019-01-09T01:27:55.106Z,103363.28
2019-01-09T01:31:03.221Z,103352.47
2019-01-09T01:34:18.743Z,103357.23
2019-01-09T01:37:31.909Z,103350.33
2019-01-09T01:40:47.530Z,103348.60
2019-01-09T01:43:28.454Z,103356.81
2019-01-09T01:46:37.055Z,103355.94
2019-01-09T01:49:35.765Z,103348.55
2019-01-09T01:52:58.396Z,103348.98
2019-01-09T01:56:04.185Z,103345.48
2019-01-09T01:59:20.413Z,103340.70
2019-01-09T02:02:19.770Z,103337.69
2019-01-09T02:05:27.189Z,103336.76
2019-01-09T02:08:23.596Z,103335.02
2019-01-09T02:11:30.298Z,103336.28
2019-01-09T02:14:40.538Z,103331.95
2019-01-09T02:17:41.796Z,103330.63
2019-01-09T02:20:46.585Z,103332.34
2019-01-09T02:24:01.116Z,103330.57
2019-01-09T02:27:04.171Z,103334.88
2019-01-09T02:30:02.723Z,103324.88
2019-01-09T02:32:33.000Z,103318.34
2019-01-09T02:35:02.441Z,103320.03
2019-01-09T02:37:31.831Z,103312.62
2019-01-09T02:40:01.195Z,103318.19
2019-01-09T02:42:30.549Z,103319.88
2019-01-09T02:44:59.933Z,103321.56
2019-01-09T02:47:29.295Z,103323.20
2019-01-09T02:49:58.801Z,103324.46
2019-01-09T02:52:28.183Z,103323.12
2019-01-09T02:54:57.516Z,103323.94
2019-01-09T02:57:26.887Z,103313.58
2019-01-09T02:59:56.265Z,103313.12
2019-01-09T03:02:25.614Z,103311.80
2019-01-09T03:04:54.973Z,103303.53
2019-01-09T03:07:26.378Z,103310.84
2019-01-09T03:09:55.743Z,103312.52
2019-01-09T03:12:25.079Z,103315.03
2019-01-09T03:14:54.653Z,103321.04
2019-01-09T03:17:24.005Z,103314.91
2019-01-09T03:19:53.344Z,103321.34
2019-01-09T03:22:22.704Z,103315.70
2019-01-09T03:24:52.060Z,103317.00
2019-01-09T03:27:21.394Z,103315.66
2019-01-09T03:29:50.739Z,103318.25
2019-01-09T03:32:20.092Z,103310.03
2019-01-09T03:34:49.452Z,103307.03
2019-01-09T03:37:18.821Z,103301.44
2019-01-09T03:39:48.204Z,103294.09
2019-01-09T03:42:17.654Z,103296.69
2019-01-09T03:44:46.992Z,103294.52
2019-01-09T03:47:16.383Z,103295.80
2019-01-09T03:49:45.726Z,103290.17
2019-01-09T03:52:15.094Z,103288.84
2019-01-09T03:54:44.490Z,103284.88
2019-01-09T03:57:13.834Z,103293.89
2019-01-09T03:59:43.175Z,103292.97
2019-01-09T04:02:12.534Z,103296.38
2019-01-09T04:04:41.883Z,103292.45
2019-01-09T04:07:11.246Z,103286.38
2019-01-09T04:09:40.614Z,103275.57
2019-01-09T04:12:09.994Z,103283.73
2019-01-09T04:14:39.338Z,103273.77
2019-01-09T04:17:08.681Z,103272.05
2019-01-09T04:19:38.057Z,103274.59
2019-01-09T04:22:07.401Z,103274.59
2019-01-09T04:24:36.764Z,103266.80
2019-01-09T04:27:06.108Z,103264.67
2019-01-09T04:29:35.462Z,103266.38
2019-01-09T04:32:04.807Z,103264.22
2019-01-09T04:34:34.161Z,103262.47
2019-01-09T04:37:03.522Z,103264.63
2019-01-09T04:39:32.881Z,103263.75
2019-01-09T04:42:02.236Z,103267.63
2019-01-09T04:44:31.574Z,103267.63
2019-01-09T04:47:00.929Z,103261.63
2019-01-09T04:49:30.273Z,103261.63
2019-01-09T04:51:59.688Z,103262.05
2019-01-09T04:54:29.071Z,103264.63
2019-01-09T04:56:58.450Z,103265.92
2019-01-09T04:59:27.855Z,103256.45
2019-01-09T05:01:57.199Z,103264.22
2019-01-09T05:04:26.525Z,103260.76
2019-01-09T05:07:00.544Z,103268.09
2019-01-09T05:09:26.975Z,103264.22
2019-01-09T05:11:56.311Z,103266.84
2019-01-09T05:14:25.667Z,103262.55
2019-01-09T05:16:55.056Z,103267.77
2019-01-09T05:19:24.415Z,103276.86
2019-01-09T05:21:53.787Z,103278.19
2019-01-09T05:24:23.130Z,103276.94
2019-01-09T05:26:52.547Z,103281.29
2019-01-09T05:29:21.916Z,103283.08
2019-01-09T05:31:51.283Z,103288.72
2019-01-09T05:34:20.629Z,103285.72
2019-01-09T05:36:49.985Z,103294.42
2019-01-09T05:39:19.346Z,103288.42
2019-01-09T05:41:48.707Z,103297.09
2019-01-09T05:44:18.075Z,103298.02
2019-01-09T05:46:47.421Z,103292.84
2019-01-09T05:49:16.776Z,103295.09
2019-01-09T05:51:46.144Z,103306.77
2019-01-09T05:54:15.505Z,103298.22
2019-01-09T05:56:44.863Z,103304.75
2019-01-09T05:59:14.215Z,103305.25
2019-01-09T06:01:43.575Z,103307.45
2019-01-09T06:04:12.911Z,103309.66
2019-01-09T06:06:42.260Z,103303.64
2019-01-09T06:09:11.625Z,103306.73
2019-01-09T06:11:40.972Z,103300.74
2019-01-09T06:14:10.291Z,103299.03
2019-01-09T06:16:39.635Z,103293.88
2019-01-09T06:19:08.994Z,103292.62
2019-01-09T06:21:38.328Z,103296.54
2019-01-09T06:24:07.715Z,103294.41
2019-01-09T06:26:37.083Z,103287.09
2019-01-09T06:29:06.429Z,103290.97
2019-01-09T06:31:35.817Z,103287.53
2019-01-09T06:34:05.190Z,103284.98
2019-01-09T06:36:34.604Z,103289.73
2019-01-09T06:39:04.644Z,103280.25
2019-01-09T06:41:33.979Z,103283.71
2019-01-09T06:44:03.362Z,103291.09
2019-01-09T06:46:32.705Z,103291.09
2019-01-09T06:49:02.079Z,103293.23
2019-01-09T06:51:31.439Z,103297.98
2019-01-09T06:54:00.819Z,103281.58
2019-01-09T06:56:30.154Z,103286.34
2019-01-09T06:58:59.513Z,103267.75
2019-01-09T07:01:28.872Z,103275.10
2019-01-09T07:03:58.226Z,103277.23
2019-01-09T07:06:27.598Z,103284.59
2019-01-09T07:08:56.956Z,103280.67
2019-01-09T07:11:26.356Z,103283.27
2019-01-09T07:13:55.706Z,103281.94
2019-01-09T07:16:25.033Z,103281.09
2019-01-09T07:18:54.408Z,103283.66
2019-01-09T07:21:23.746Z,103292.72
2019-01-09T07:23:53.098Z,103301.75
2019-01-09T07:26:22.431Z,103312.08
2019-01-09T07:28:51.819Z,103325.83
2019-01-09T07:31:21.259Z,103323.62
2019-01-09T07:33:50.604Z,103314.07
2019-01-09T07:36:19.960Z,103320.50
2019-01-09T07:38:49.320Z,103326.48
2019-01-09T07:41:18.674Z,103326.45
2019-01-09T07:43:48.033Z,103316.93
2019-01-09T07:46:17.456Z,103319.02
2019-01-09T07:48:46.819Z,103319.41
2019-01-09T07:51:16.176Z,103321.47
2019-01-09T07:53:45.547Z,103324.01
2019-01-09T07:56:14.904Z,103328.27
2019-01-09T07:58:44.248Z,103334.23
2019-01-09T08:01:13.604Z,103336.77
2019-01-09T08:03:42.933Z,103337.60
2019-01-09T08:06:12.304Z,103331.47
2019-01-09T08:08:41.652Z,103334.47
2019-01-09T08:11:11.004Z,103338.30
2019-01-09T08:13:40.365Z,103337.42
2019-01-09T08:16:09.694Z,103336.47
2019-01-09T08:18:39.054Z,103338.17
2019-01-09T08:21:08.419Z,103338.13
2019-01-09T08:23:37.800Z,103335.53
2019-01-09T08:26:07.157Z,103339.36
2019-01-09T08:28:36.521Z,103331.14
2019-01-09T08:31:05.860Z,103336.27
2019-01-09T08:33:35.212Z,103335.34
2019-01-09T08:36:04.561Z,103333.59
2019-01-09T08:38:33.929Z,103327.95
2019-01-09T08:41:03.312Z,103327.48
2019-01-09T08:43:32.677Z,103326.15
2019-01-09T08:46:02.044Z,103329.56
2019-01-09T08:48:31.395Z,103327.80
2019-01-09T08:51:01.362Z,103333.80
2019-01-09T08:53:30.694Z,103332.09
2019-01-09T08:56:00.108Z,103321.71
2019-01-09T08:58:29.512Z,103325.58
2019-01-09T09:00:58.882Z,103335.45
2019-01-09T09:03:28.251Z,103331.57
2019-01-09T09:05:57.599Z,103335.86
2019-01-09T09:08:28.303Z,103334.98
2019-01-09T09:10:57.655Z,103336.73
2019-01-09T09:13:38.300Z,103335.03
2019-01-09T09:16:09.214Z,103339.75
2019-01-09T09:18:38.588Z,103345.37
2019-01-09T09:21:07.942Z,103349.66
2019-01-09T09:23:37.299Z,103360.42
2019-01-09T09:26:06.895Z,103361.30
2019-01-09T09:28:36.264Z,103364.75
2019-01-09T09:31:05.865Z,103367.75
2019-01-09T09:33:35.234Z,103372.55
2019-01-09T09:36:04.720Z,103374.72
2019-01-09T09:38:34.099Z,103374.77
2019-01-09T09:41:03.463Z,103374.37
2019-01-09T09:43:32.817Z,103383.46
2019-01-09T09:46:02.189Z,103380.47
2019-01-09T09:48:31.591Z,103383.11
2019-01-09T09:51:00.960Z,103385.33
2019-01-09T09:53:30.328Z,103388.80
2019-01-09T09:55:59.747Z,103390.55
2019-01-09T09:58:29.150Z,103384.14
2019-01-09T10:00:58.499Z,103382.89
2019-01-09T10:03:27.879Z,103383.36
2019-01-09T10:05:57.222Z,103396.34
2019-01-09T10:08:29.572Z,103392.09
2019-01-09T10:10:57.759Z,103395.14
2019-01-09T10:13:27.189Z,103394.33
2019-01-09T10:15:56.554Z,103394.41
2019-01-09T10:18:25.909Z,103386.70
2019-01-09T10:20:55.294Z,103390.62
2019-01-09T10:23:24.652Z,103385.08
2019-01-09T10:25:54.020Z,103389.89
2019-01-09T10:28:23.375Z,103386.05
2019-01-09T10:30:52.746Z,103383.51
2019-01-09T10:33:22.146Z,103391.32
2019-01-09T10:35:51.505Z,103392.23
2019-01-09T10:38:20.856Z,103397.91
2019-01-09T10:40:50.229Z,103406.13
2019-01-09T10:43:19.569Z,103407.89
2019-01-09T10:45:48.910Z,103406.67
2019-01-09T10:48:18.278Z,103411.02
2019-01-09T10:50:49.075Z,103417.08
2019-01-09T10:53:18.450Z,103413.23
2019-01-09T10:55:47.858Z,103398.63
2019-01-09T10:58:17.217Z,103397.82
2019-01-09T11:00:46.559Z,103403.05
2019-01-09T11:03:15.925Z,103391.01
2019-01-09T11:05:45.265Z,103385.87
2019-01-09T11:08:14.625Z,103390.21
2019-01-09T11:10:43.975Z,103393.29
2019-01-09T11:13:13.314Z,103384.69
2019-01-09T11:15:42.685Z,103382.13
2019-01-09T11:18:12.057Z,103382.20
2019-01-09T11:20:41.408Z,103374.88
2019-01-09T11:23:10.838Z,103370.58
2019-01-09T11:25:40.189Z,103358.95
2019-01-09T11:28:09.543Z,103355.52
2019-01-09T11:30:38.915Z,103349.07
2019-01-09T11:33:08.265Z,103353.86
2019-01-09T11:35:37.598Z,103356.03
2019-01-09T11:38:06.978Z,103350.45
2019-01-09T11:40:36.341Z,103354.38
2019-01-09T11:43:05.681Z,103353.95
2019-01-09T11:45:35.051Z,103351.38
2019-01-09T11:48:04.535Z,103344.52
2019-01-09T11:50:33.952Z,103343.67
2019-01-09T11:53:03.308Z,103345.41
2019-01-09T11:55:32.671Z,103343.27
2019-01-09T11:58:28.827Z,103348.48
2019-01-09T12:00:58.342Z,103347.21
2019-01-09T12:03:27.810Z,103356.73
2019-01-09T12:05:57.146Z,103358.48
2019-01-09T12:08:26.778Z,103357.17
2019-01-09T12:10:57.514Z,103356.33
2019-01-09T12:13:28.132Z,103351.14
2019-01-09T12:15:57.485Z,103356.36
2019-01-09T12:18:26.844Z,103349.91
2019-01-09T12:20:56.207Z,103342.12
2019-01-09T12:23:25.545Z,103336.51
2019-01-09T12:25:54.883Z,103328.31
2019-01-09T12:28:24.251Z,103315.77
2019-01-09T12:30:55.058Z,103314.47
2019-01-09T12:33:25.806Z,103304.09
2019-01-09T12:35:55.159Z,103293.33
2019-01-09T12:38:24.552Z,103289.86
2019-01-09T12:40:54.018Z,103291.16
2019-01-09T12:43:23.380Z,103290.28
2019-01-09T12:45:52.842Z,103283.38
2019-01-09T12:48:22.254Z,103279.48
2019-01-09T12:50:51.593Z,103278.19
2019-01-09T12:53:20.958Z,103282.50
2019-01-09T12:55:50.298Z,103272.12
2019-01-09T12:58:19.831Z,103274.75
2019-01-09T13:00:49.187Z,103271.70
2019-01-09T13:03:18.551Z,103276.47
2019-01-09T13:05:47.962Z,103274.30
2019-01-09T13:08:17.324Z,103278.64
2019-01-09T13:10:46.704Z,103277.76
2019-01-09T13:13:16.183Z,103271.27
2019-01-09T13:15:46.536Z,103274.77
2019-01-09T13:18:15.869Z,103273.89
2019-01-09T13:20:48.336Z,103275.62
2019-01-09T13:23:17.993Z,103268.75
2019-01-09T13:25:47.353Z,103275.66
2019-01-09T13:28:18.417Z,103273.97
2019-01-09T13:30:47.988Z,103274.84
2019-01-09T13:33:17.325Z,103277.45
2019-01-09T13:35:47.829Z,103274.88
2019-01-09T13:38:17.214Z,103274.03
2019-01-09T13:40:47.732Z,103270.17
2019-01-09T13:43:18.276Z,103267.16
2019-01-09T13:45:49.452Z,103269.75
2019-01-09T13:48:18.795Z,103268.05
2019-01-09T13:51:09.583Z,103266.36
2019-01-09T13:53:39.079Z,103265.06
2019-01-09T13:56:12.032Z,103267.67
2019-01-09T13:58:41.520Z,103270.25
2019-01-09T14:01:12.310Z,103267.23
2019-01-09T14:03:41.768Z,103266.38
2019-01-09T14:06:11.177Z,103275.89
2019-01-09T14:08:40.544Z,103270.67
2019-01-09T14:11:09.905Z,103263.77
2019-01-09T14:13:39.241Z,103269.40
2019-01-09T14:16:08.610Z,103264.20
2019-01-09T14:18:37.952Z,103264.63
2019-01-09T14:21:08.413Z,103273.30
2019-01-09T14:23:37.848Z,103268.10
2019-01-09T14:26:07.456Z,103262.91
2019-01-09T14:28:36.793Z,103265.92
2019-01-09T14:31:07.718Z,103274.56
2019-01-09T14:33:38.089Z,103277.61
2019-01-09T14:36:08.458Z,103278.06
2019-01-09T14:38:39.000Z,103285.40
2019-01-09T14:41:11.284Z,103283.23
2019-01-09T14:43:40.640Z,103282.80
2019-01-09T14:46:10.074Z,103278.92
2019-01-09T14:48:39.434Z,103270.27
2019-01-09T14:51:08.769Z,103279.78
2019-01-09T14:53:38.146Z,103278.04
2019-01-09T14:56:07.523Z,103280.19
2019-01-09T14:58:36.876Z,103284.06
2019-01-09T15:01:06.304Z,103278.46
2019-01-09T15:03:35.740Z,103284.52
2019-01-09T15:06:05.207Z,103283.20
2019-01-09T15:08:34.523Z,103291.84
2019-01-09T15:11:03.885Z,103291.40
2019-01-09T15:13:33.226Z,103291.83
2019-01-09T15:16:02.679Z,103286.20
2019-01-09T15:18:31.974Z,103285.75
2019-01-09T15:21:01.341Z,103280.13
2019-01-09T15:23:30.768Z,103284.43
2019-01-09T15:26:00.086Z,103286.59
2019-01-09T15:28:29.445Z,103274.91
2019-01-09T15:30:58.806Z,103277.51
2019-01-09T15:33:28.168Z,103286.14
2019-01-09T15:35:57.490Z,103278.77
2019-01-09T15:38:26.843Z,103282.63
2019-01-09T15:40:56.230Z,103283.94
2019-01-09T15:43:25.553Z,103290.41
2019-01-09T15:45:54.924Z,103281.76
2019-01-09T15:48:24.283Z,103288.67
2019-01-09T15:50:53.690Z,103289.95
2019-01-09T15:53:23.025Z,103292.08
2019-01-09T15:55:52.440Z,103285.16
2019-01-09T15:58:21.798Z,103291.59
2019-01-09T16:00:54.370Z,103297.22
2019-01-09T16:03:26.315Z,103301.93
2019-01-09T16:05:55.883Z,103292.39
2019-01-09T16:08:25.256Z,103288.90
2019-01-09T16:10:54.599Z,103296.23
2019-01-09T16:13:24.050Z,103301.83
2019-01-09T16:15:53.385Z,103304.36
2019-01-09T16:18:23.226Z,103307.78
2019-01-09T16:20:52.761Z,103302.13
2019-01-09T16:23:22.196Z,103296.05
2019-01-09T16:25:51.593Z,103302.89
2019-01-09T16:28:20.959Z,103292.92
2019-01-09T16:31:23.349Z,103279.48
2019-01-09T16:33:52.715Z,103282.48
2019-01-09T16:36:22.088Z,103286.27
2019-01-09T16:38:51.422Z,103289.25
2019-01-09T16:41:20.776Z,103288.32
2019-01-09T16:43:50.148Z,103291.72
2019-01-09T16:46:19.970Z,103285.62
2019-01-09T16:48:49.419Z,103285.98
2019-01-09T16:51:18.772Z,103289.80
2019-01-09T16:53:48.180Z,103287.59
2019-01-09T16:56:17.651Z,103286.22
2019-01-09T16:58:46.986Z,103293.45
2019-01-09T17:01:16.488Z,103287.75
2019-01-09T17:03:45.956Z,103282.53
2019-01-09T17:06:15.303Z,103288.96
2019-01-09T17:08:44.655Z,103288.92
2019-01-09T17:11:14.398Z,103289.67
2019-01-09T17:13:43.763Z,103288.30
2019-01-09T17:16:13.125Z,103297.30
2019-01-09T17:18:42.485Z,103287.70
2019-01-09T17:21:12.027Z,103289.38
2019-01-09T17:23:41.650Z,103295.78
2019-01-09T17:26:11.188Z,103303.45
2019-01-09T17:28:40.559Z,103301.64
2019-01-09T17:31:10.022Z,103314.05
2019-01-09T17:33:39.363Z,103314.01
2019-01-09T17:36:08.795Z,103320.37
2019-01-09T17:38:38.159Z,103327.66
2019-01-09T17:41:07.611Z,103331.47
2019-01-09T17:43:36.983Z,103332.75
2019-01-09T17:46:06.417Z,103335.28
2019-01-09T17:48:35.817Z,103335.23
2019-01-09T17:51:05.281Z,103340.30
2019-01-09T17:53:34.646Z,103347.99
2019-01-09T17:56:04.054Z,103341.00
2019-01-09T17:58:33.674Z,103340.89
2019-01-09T18:01:03.029Z,103349.86
2019-01-09T18:03:32.391Z,103357.50
2019-01-09T18:06:01.746Z,103352.69
2019-01-09T18:08:31.207Z,103353.49
2019-01-09T18:11:00.561Z,103348.28
2019-01-09T18:13:29.949Z,103343.11
2019-01-09T18:15:59.290Z,103340.88
2019-01-09T18:18:28.657Z,103336.94
2019-01-09T18:20:58.059Z,103337.30
2019-01-09T18:23:27.393Z,103341.09
2019-01-09T18:25:56.793Z,103340.17
2019-01-09T18:28:26.153Z,103342.27
2019-01-09T18:31:20.911Z,103339.16
2019-01-09T18:34:01.981Z,103346.42
2019-01-09T18:36:59.178Z,103348.11
2019-01-09T18:40:09.376Z,103353.20
2019-01-09T18:43:21.472Z,103358.70
2019-01-09T18:46:42.253Z,103360.29
2019-01-09T18:49:53.077Z,103364.95
2019-01-09T18:52:31.266Z,103360.12
2019-01-09T18:55:00.768Z,103348.00
2019-01-09T18:57:30.343Z,103344.51
2019-01-09T18:59:59.827Z,103350.91
2019-01-09T19:02:29.190Z,103344.38
2019-01-09T19:04:58.585Z,103340.45
2019-01-09T19:07:27.949Z,103338.63
2019-01-09T19:09:57.346Z,103339.00
2019-01-09T19:12:26.723Z,103338.88
2019-01-09T19:14:57.500Z,103331.06
2019-01-09T19:17:26.854Z,103327.13
2019-01-09T19:19:57.289Z,103322.78
2019-01-09T19:22:26.680Z,103322.30
2019-01-09T19:24:57.505Z,103327.05
2019-01-09T19:27:26.877Z,103324.95
2019-01-09T19:29:56.272Z,103332.70
2019-01-09T19:32:25.664Z,103330.56
2019-01-09T19:34:55.047Z,103339.13
2019-01-09T19:37:24.454Z,103341.65
2019-01-09T19:39:53.994Z,103345.52
2019-01-09T19:42:27.631Z,103351.94
2019-01-09T19:44:57.028Z,103360.06
2019-01-09T19:47:26.430Z,103362.59
2019-01-09T19:49:55.905Z,103351.37
2019-01-09T19:52:25.301Z,103357.20
2019-01-09T19:54:54.707Z,103363.58
2019-01-09T19:57:24.229Z,103362.27
2019-01-09T19:59:53.603Z,103367.83
2019-01-09T20:02:22.988Z,103367.83
2019-01-09T20:04:52.458Z,103367.36
2019-01-09T20:07:22.924Z,103357.02
2019-01-09T20:09:52.295Z,103360.89
2019-01-09T20:12:21.758Z,103364.63
2019-01-09T20:14:51.361Z,103363.23
2019-01-09T20:17:20.739Z,103356.72
2019-01-09T20:19:50.197Z,103350.67
2019-01-09T20:22:19.791Z,103345.45
2019-01-09T20:24:49.311Z,103354.93
2019-01-09T20:27:20.565Z,103347.15
2019-01-09T20:29:50.071Z,103349.23
2019-01-09T20:32:19.654Z,103349.23
2019-01-09T20:34:49.236Z,103346.17
2019-01-09T20:37:18.668Z,103355.13
2019-01-09T20:39:48.037Z,103355.52
2019-01-09T20:42:17.458Z,103361.53
2019-01-09T20:44:54.264Z,103352.44
2019-01-09T20:47:28.220Z,103359.70
2019-01-09T20:49:58.580Z,103366.11
2019-01-09T20:52:32.209Z,103371.20
2019-01-09T20:55:01.759Z,103364.69
2019-01-09T20:57:31.241Z,103365.91
2019-01-09T21:00:00.735Z,103368.43
2019-01-09T21:02:30.141Z,103366.21
2019-01-09T21:04:59.690Z,103361.45
2019-01-09T21:07:29.118Z,103365.70
2019-01-09T21:09:58.653Z,103370.84
2019-01-09T21:12:28.025Z,103367.34
2019-01-09T21:14:57.403Z,103369.40
2019-01-09T21:17:26.830Z,103380.95
2019-01-09T21:19:56.186Z,103379.61
2019-01-09T21:22:25.878Z,103383.01
2019-01-09T21:24:55.288Z,103377.42
2019-01-09T21:27:25.996Z,103375.23
2019-01-09T21:29:55.772Z,103361.43
2019-01-09T21:32:25.185Z,103362.23
2019-01-09T21:34:54.586Z,103363.91
2019-01-09T21:37:24.053Z,103361.66
2019-01-09T21:39:53.773Z,103374.09
2019-01-09T21:42:23.166Z,103375.72
2019-01-09T21:44:52.741Z,103383.83
2019-01-09T21:47:22.164Z,103384.68
2019-01-09T21:49:51.548Z,103383.74
2019-01-09T21:52:21.039Z,103382.84
2019-01-09T21:54:50.465Z,103383.66
2019-01-09T21:57:19.889Z,103381.47
2019-01-09T21:59:49.541Z,103386.53
2019-01-09T22:02:19.172Z,103389.87
2019-01-09T22:04:48.553Z,103382.85
2019-01-09T22:07:19.401Z,103387.59
2019-01-09T22:09:48.773Z,103388.41
2019-01-09T22:12:20.129Z,103391.70
2019-01-09T22:14:49.527Z,103386.54
2019-01-09T22:17:19.218Z,103391.59
2019-01-09T22:19:48.616Z,103396.23
2019-01-09T22:22:18.354Z,103392.38
2019-01-09T22:24:47.829Z,103395.36
2019-01-09T22:27:17.164Z,103400.51
2019-01-09T22:29:46.654Z,103400.01
2019-01-09T22:32:17.663Z,103400.01
2019-01-09T22:34:47.276Z,103399.54
2019-01-09T22:37:16.639Z,103407.25
2019-01-09T22:39:47.064Z,103403.78
2019-01-09T22:42:16.421Z,103413.19
2019-01-09T22:44:45.782Z,103411.40
2019-01-09T22:47:15.183Z,103413.94
2019-01-09T22:49:44.604Z,103410.02
2019-01-09T22:52:13.958Z,103409.59
2019-01-09T22:54:43.389Z,103405.23
2019-01-09T22:57:12.742Z,103403.06
2019-01-09T22:59:42.157Z,103400.50
2019-01-09T23:02:13.877Z,103400.03
2019-01-09T23:04:44.254Z,103404.26
2019-01-09T23:07:13.623Z,103395.64
2019-01-09T23:09:43.013Z,103405.95
2019-01-09T23:12:20.822Z,103410.22
2019-01-09T23:14:43.610Z,103406.73
2019-01-09T23:17:12.964Z,103411.00
2019-01-09T23:19:44.757Z,103407.59
2019-01-09T23:22:14.238Z,103412.66
2019-01-09T23:24:43.629Z,103413.45
2019-01-09T23:27:12.978Z,103410.85
2019-01-09T23:29:42.466Z,103412.98
2019-01-09T23:32:11.834Z,103406.91
2019-01-09T23:34:41.176Z,103405.14
2019-01-09T23:37:10.543Z,103407.69
2019-01-09T23:39:39.909Z,103401.60
2019-01-09T23:42:09.249Z,103403.73
2019-01-09T23:44:38.724Z,103401.48
2019-01-09T23:47:08.076Z,103404.80
2019-01-09T23:49:39.941Z,103405.55
2019-01-09T23:52:09.280Z,103405.05
2019-01-09T23:54:38.625Z,103403.27
2019-01-09T23:57:07.991Z,103399.06
2019-01-09T23:59:37.381Z,103400.79
